createdAt,value
2022-07-26T00:03:07.946Z,1003.302
2022-07-26T00:23:07.940Z,1003.357
2022-07-26T00:43:08.012Z,1003.381
2022-07-26T01:03:08.728Z,1003.437
2022-07-26T01:23:07.891Z,1003.544
2022-07-26T01:43:07.842Z,1003.38
2022-07-26T02:03:09.064Z,1003.515
2022-07-26T02:23:08.101Z,1003.704
2022-07-26T02:43:07.970Z,1003.848
2022-07-26T03:03:09.066Z,1003.793
2022-07-26T03:23:08.138Z,1003.826
2022-07-26T03:43:07.994Z,1003.929
2022-07-26T04:03:08.134Z,1004.112
2022-07-26T04:23:12.979Z,1004.102
2022-07-26T04:43:16.241Z,1004.09
2022-07-26T05:03:08.938Z,1004.201
2022-07-26T05:23:08.041Z,1004.25
2022-07-26T05:43:08.081Z,1004.41
2022-07-26T06:03:08.933Z,1004.456
2022-07-26T06:23:07.840Z,1004.664
2022-07-26T06:43:07.896Z,1004.777
2022-07-26T07:03:08.779Z,1004.958
2022-07-26T07:23:07.725Z,1005.116
2022-07-26T07:43:07.627Z,1005.214
2022-07-26T08:03:08.686Z,1005.273
2022-07-26T08:23:07.704Z,1005.248
2022-07-26T08:43:07.836Z,1005.329
2022-07-26T09:03:08.649Z,1005.404
2022-07-26T09:23:07.738Z,1005.348
2022-07-26T09:43:10.526Z,1005.409
2022-07-26T10:03:08.720Z,1005.987
2022-07-26T10:23:07.666Z,1006.541
2022-07-26T10:43:42.902Z,1006.624
2022-07-26T11:03:09.282Z,1006.729
2022-07-26T11:23:07.668Z,1006.9
2022-07-26T11:43:08.031Z,1007.075
2022-07-26T12:03:08.961Z,1007.196
2022-07-26T12:23:07.918Z,1007.201
2022-07-26T12:43:08.137Z,1007.301
2022-07-26T13:03:08.986Z,1007.158
2022-07-26T13:23:09.645Z,1007.276
2022-07-26T13:43:08.447Z,1007.357
2022-07-26T14:03:08.665Z,1007.67
2022-07-26T14:23:07.561Z,1007.769
2022-07-26T14:43:07.562Z,1007.952
2022-07-26T15:03:08.470Z,1007.887
2022-07-26T15:23:09.093Z,1008.039
2022-07-26T15:43:07.987Z,1007.819
2022-07-26T16:03:08.942Z,1007.77
2022-07-26T16:23:07.874Z,1007.799
2022-07-26T16:43:12.738Z,1007.806
2022-07-26T17:03:08.637Z,1007.671
2022-07-26T17:23:07.418Z,1007.65
2022-07-26T17:43:07.578Z,1007.756
2022-07-26T18:03:08.557Z,1007.846
2022-07-26T18:23:07.369Z,1007.842
2022-07-26T18:43:07.620Z,1007.924
2022-07-26T19:03:08.729Z,1008.04
2022-07-26T19:23:07.871Z,1008.116
2022-07-26T19:43:08.026Z,1008.215
2022-07-26T20:03:11.534Z,1008.466
2022-07-26T20:23:07.519Z,1008.644
2022-07-26T20:43:08.077Z,1008.763
2022-07-26T21:03:09.218Z,1008.847
2022-07-26T21:23:20.187Z,1009.096
2022-07-26T21:43:07.343Z,1009.131
2022-07-26T22:03:08.541Z,1009.294
2022-07-26T22:23:07.435Z,1009.265
2022-07-26T22:43:07.290Z,1009.349
2022-07-26T23:03:21.101Z,1009.39
2022-07-26T23:23:08.206Z,1009.533
2022-07-26T23:43:08.036Z,1009.508
